Snow/Ice From: 17-12-2017 10:00 Until: 18-12-2017 06:00 warning for: Snow/Ice Level: Yellow info button

Although rather usual in this region, locally or potentially dangerous phenomena are expected. (such as local winds, summer thunderstorms, rising streams or high waves) Be aware and pay attention to the latest weather updates, especially if you carry out activities exposed to weather or close to a stream or shoreline. 


Meteo18 Weather Cam more information Meteo18 Weather Cam


Thunder radar more information blitzortung!


warning for Snow/Ice more information rain snow radar


Visit our other weather sites:

Template documentation
and downloads

And another site



Weather Underground History page Text

Daily Summary for March 23, 2017 Units:  Both    English   Metric
« Previous Day
Next Day »
Daily Weekly Monthly Yearly Custom
  High: Low: Average:
Temperature: 48 °F /  8.9 °C 38.8 °F /  3.8 °C 43.3 °F /  6.3 °C
Dew Point: 44.1 °F /  6.7 °C 36.5 °F /  2.5 °C 40.6 °F /  4.8 °C
Humidity: 94 % 85 % 90 %
Wind Speed: 9 mph /  14.5 km/h - 1.5 mph /  2.4 km/h
Wind Gust: 13 mph /  20.9 km/h - -
Wind:- - South
Pressure: 30.1 in /  1017.8 hPa 29.7 in /  1006.7 hPa -
Precipitation: 0.09 in /  2.3 mm    
Historical Graphs
 
 
Tabular Data for March 23, 2017
Time Temperature Dew Point Pressure Wind Wind Speed Wind Gust Humidity Rainfall Rate (Hourly)
00:02 43.7 °F /  6.5 °C 40.1 °F /  4.5 °C 29.8 in /  1009.4 hPa Calm   1 mph /  1.6 km/h 87 % 0 in /  0.0 mm
00:12 43.9 °F /  6.6 °C 40.6 °F /  4.8 °C 29.8 in /  1009.4 hPa Calm   1 mph /  1.6 km/h 88 % 0 in /  0.0 mm
00:17 43.9 °F /  6.6 °C 40.6 °F /  4.8 °C 29.8 in /  1009.4 hPa Calm   1 mph /  1.6 km/h 88 % 0 in /  0.0 mm
00:22 43.5 °F /  6.4 °C 40.3 °F /  4.6 °C 29.8 in /  1009.4 hPa East 1 mph /  1.6 km/h 1 mph /  1.6 km/h 88 % 0 in /  0.0 mm
00:27 43.3 °F /  6.3 °C 40.3 °F /  4.6 °C 29.8 in /  1009.0 hPa ENE 1 mph /  1.6 km/h 1 mph /  1.6 km/h 89 % 0 in /  0.0 mm
00:32 43.3 °F /  6.3 °C 40.3 °F /  4.6 °C 29.8 in /  1009.0 hPa ENE 2 mph /  3.2 km/h 2 mph /  3.2 km/h 89 % 0 in /  0.0 mm
00:37 43.5 °F /  6.4 °C 40.5 °F /  4.7 °C 29.8 in /  1009.0 hPa ENE 1 mph /  1.6 km/h 2 mph /  3.2 km/h 89 % 0 in /  0.0 mm
00:42 43.3 °F /  6.3 °C 40.1 °F /  4.5 °C 29.8 in /  1009.0 hPa ENE 2 mph /  3.2 km/h 3 mph /  4.8 km/h 88 % 0 in /  0.0 mm
00:52 43 °F /  6.1 °C 39.7 °F /  4.3 °C 29.8 in /  1009.0 hPa Calm   3 mph /  4.8 km/h 88 % 0 in /  0.0 mm
00:57 42.6 °F /  5.9 °C 39.4 °F /  4.1 °C 29.8 in /  1009.0 hPa Calm   3 mph /  4.8 km/h 88 % 0 in /  0.0 mm
01:02 42.4 °F /  5.8 °C 39.2 °F /  4.0 °C 29.8 in /  1008.7 hPa Calm   3 mph /  4.8 km/h 88 % 0 in /  0.0 mm
01:07 42.3 °F /  5.7 °C 39 °F /  3.9 °C 29.8 in /  1008.7 hPa Calm   1 mph /  1.6 km/h 88 % 0 in /  0.0 mm
01:12 42.3 °F /  5.7 °C 39 °F /  3.9 °C 29.8 in /  1008.7 hPa Calm   1 mph /  1.6 km/h 88 % 0 in /  0.0 mm
01:17 42.3 °F /  5.7 °C 39 °F /  3.9 °C 29.8 in /  1008.7 hPa Calm     88 % 0 in /  0.0 mm
01:22 42.1 °F /  5.6 °C 38.8 °F /  3.8 °C 29.8 in /  1008.7 hPa Calm     88 % 0 in /  0.0 mm
01:32 41.5 °F /  5.3 °C 38.5 °F /  3.6 °C 29.8 in /  1008.7 hPa Calm     89 % 0 in /  0.0 mm
01:37 41.4 °F /  5.2 °C 38.3 °F /  3.5 °C 29.8 in /  1008.7 hPa Calm     89 % 0 in /  0.0 mm
01:42 41.4 °F /  5.2 °C 38.7 °F /  3.7 °C 29.8 in /  1008.4 hPa Calm     90 % 0 in /  0.0 mm
01:47 41.4 °F /  5.2 °C 38.3 °F /  3.5 °C 29.8 in /  1008.4 hPa Calm     89 % 0 in /  0.0 mm
01:52 41.5 °F /  5.3 °C 38.5 °F /  3.6 °C 29.8 in /  1008.4 hPa NNE 2 mph /  3.2 km/h   89 % 0 in /  0.0 mm
02:02 41.4 °F /  5.2 °C 38.3 °F /  3.5 °C 29.8 in /  1008.4 hPa Calm   3 mph /  4.8 km/h 89 % 0 in /  0.0 mm
02:07 41.4 °F /  5.2 °C 38.3 °F /  3.5 °C 29.8 in /  1008.4 hPa North 1 mph /  1.6 km/h 3 mph /  4.8 km/h 89 % 0 in /  0.0 mm
02:12 41.4 °F /  5.2 °C 38.3 °F /  3.5 °C 29.8 in /  1008.4 hPa Calm   3 mph /  4.8 km/h 89 % 0 in /  0.0 mm
02:17 41 °F /  5.0 °C 37.9 °F /  3.3 °C 29.8 in /  1008.4 hPa North 1 mph /  1.6 km/h 1 mph /  1.6 km/h 89 % 0 in /  0.0 mm
02:22 40.6 °F /  4.8 °C 37.6 °F /  3.1 °C 29.8 in /  1008.4 hPa NW 2 mph /  3.2 km/h 2 mph /  3.2 km/h 89 % 0 in /  0.0 mm
02:27 40.5 °F /  4.7 °C 37.8 °F /  3.2 °C 29.8 in /  1008.4 hPa NW 1 mph /  1.6 km/h 2 mph /  3.2 km/h 90 % 0 in /  0.0 mm
02:32 40.6 °F /  4.8 °C 37.9 °F /  3.3 °C 29.8 in /  1008.4 hPa NNE 2 mph /  3.2 km/h 2 mph /  3.2 km/h 90 % 0 in /  0.0 mm
02:37 40.5 °F /  4.7 °C 37.8 °F /  3.2 °C 29.8 in /  1008.4 hPa Calm   2 mph /  3.2 km/h 90 % 0 in /  0.0 mm
02:42 40.5 °F /  4.7 °C 37.8 °F /  3.2 °C 29.8 in /  1008.4 hPa Calm   2 mph /  3.2 km/h 90 % 0 in /  0.0 mm
02:47 39.9 °F /  4.4 °C 36.9 °F /  2.7 °C 29.8 in /  1008.4 hPa WNW 1 mph /  1.6 km/h 2 mph /  3.2 km/h 89 % 0 in /  0.0 mm
02:52 39.6 °F /  4.2 °C 36.9 °F /  2.7 °C 29.8 in /  1008.4 hPa Calm   2 mph /  3.2 km/h 90 % 0 in /  0.0 mm
02:57 39.2 °F /  4.0 °C 36.5 °F /  2.5 °C 29.8 in /  1008.4 hPa NNE 1 mph /  1.6 km/h 2 mph /  3.2 km/h 90 % 0 in /  0.0 mm
03:02 38.8 °F /  3.8 °C 36.5 °F /  2.5 °C 29.8 in /  1008.0 hPa Calm   2 mph /  3.2 km/h 91 % 0 in /  0.0 mm
03:07 38.8 °F /  3.8 °C 36.7 °F /  2.6 °C 29.8 in /  1008.0 hPa North 2 mph /  3.2 km/h 4 mph /  6.4 km/h 92 % 0 in /  0.0 mm
03:12 39 °F /  3.9 °C 36.9 °F /  2.7 °C 29.8 in /  1008.0 hPa NNE 2 mph /  3.2 km/h 4 mph /  6.4 km/h 92 % 0 in /  0.0 mm
03:17 39.4 °F /  4.1 °C 37 °F /  2.8 °C 29.8 in /  1007.7 hPa NNW 1 mph /  1.6 km/h 4 mph /  6.4 km/h 91 % 0 in /  0.0 mm
03:22 39.4 °F /  4.1 °C 37 °F /  2.8 °C 29.8 in /  1007.7 hPa North 2 mph /  3.2 km/h 4 mph /  6.4 km/h 91 % 0 in /  0.0 mm
03:32 39.7 °F /  4.3 °C 37 °F /  2.8 °C 29.7 in /  1007.3 hPa Calm   4 mph /  6.4 km/h 90 % 0 in /  0.0 mm
03:42 39.7 °F /  4.3 °C 37 °F /  2.8 °C 29.8 in /  1007.7 hPa NNE 2 mph /  3.2 km/h 4 mph /  6.4 km/h 90 % 0 in /  0.0 mm
03:47 40.3 °F /  4.6 °C 37.2 °F /  2.9 °C 29.7 in /  1007.3 hPa NE 1 mph /  1.6 km/h 3 mph /  4.8 km/h 89 % 0 in /  0.0 mm
03:52 40.5 °F /  4.7 °C 37.2 °F /  2.9 °C 29.7 in /  1007.3 hPa ENE 2 mph /  3.2 km/h 3 mph /  4.8 km/h 88 % 0 in /  0.0 mm
03:57 40.3 °F /  4.6 °C 37 °F /  2.8 °C 29.7 in /  1007.3 hPa NE 1 mph /  1.6 km/h 4 mph /  6.4 km/h 88 % 0 in /  0.0 mm
04:02 39.9 °F /  4.4 °C 36.7 °F /  2.6 °C 29.7 in /  1007.3 hPa NE 4 mph /  6.4 km/h 4 mph /  6.4 km/h 88 % 0 in /  0.0 mm
04:07 39.9 °F /  4.4 °C 36.7 °F /  2.6 °C 29.7 in /  1007.3 hPa NE 3 mph /  4.8 km/h 5 mph /  8.0 km/h 88 % 0 in /  0.0 mm
04:12 39.7 °F /  4.3 °C 36.5 °F /  2.5 °C 29.7 in /  1007.3 hPa NNE 2 mph /  3.2 km/h 5 mph /  8.0 km/h 88 % 0 in /  0.0 mm
04:17 39.6 °F /  4.2 °C 36.5 °F /  2.5 °C 29.7 in /  1007.3 hPa Calm   5 mph /  8.0 km/h 89 % 0 in /  0.0 mm
04:22 39.7 °F /  4.3 °C 36.7 °F /  2.6 °C 29.7 in /  1007.3 hPa Calm   5 mph /  8.0 km/h 89 % 0 in /  0.0 mm
04:27 39.7 °F /  4.3 °C 36.5 °F /  2.5 °C 29.7 in /  1007.3 hPa NE 2 mph /  3.2 km/h 4 mph /  6.4 km/h 88 % 0 in /  0.0 mm
04:32 39.7 °F /  4.3 °C 36.7 °F /  2.6 °C 29.7 in /  1007.3 hPa NNE 3 mph /  4.8 km/h 4 mph /  6.4 km/h 89 % 0 in /  0.0 mm
04:42 40.3 °F /  4.6 °C 37 °F /  2.8 °C 29.7 in /  1007.3 hPa NNE 3 mph /  4.8 km/h 4 mph /  6.4 km/h 88 % 0 in /  0.0 mm
04:47 40.5 °F /  4.7 °C 37.2 °F /  2.9 °C 29.7 in /  1007.0 hPa NNE 4 mph /  6.4 km/h 4 mph /  6.4 km/h 88 % 0 in /  0.0 mm
04:52 40.3 °F /  4.6 °C 36.7 °F /  2.6 °C 29.7 in /  1006.7 hPa Calm   4 mph /  6.4 km/h 87 % 0 in /  0.0 mm
04:57 39.9 °F /  4.4 °C 36.7 °F /  2.6 °C 29.7 in /  1006.7 hPa NE 4 mph /  6.4 km/h 4 mph /  6.4 km/h 88 % 0 in /  0.0 mm
05:02 40.3 °F /  4.6 °C 37 °F /  2.8 °C 29.7 in /  1007.0 hPa NE 2 mph /  3.2 km/h 4 mph /  6.4 km/h 88 % 0 in /  0.0 mm
05:12 40.5 °F /  4.7 °C 36.9 °F /  2.7 °C 29.7 in /  1007.0 hPa NE 2 mph /  3.2 km/h 4 mph /  6.4 km/h 87 % 0 in /  0.0 mm
05:17 40.6 °F /  4.8 °C 37 °F /  2.8 °C 29.7 in /  1006.7 hPa NE 3 mph /  4.8 km/h 3 mph /  4.8 km/h 87 % 0 in /  0.0 mm
05:22 40.5 °F /  4.7 °C 36.9 °F /  2.7 °C 29.7 in /  1006.7 hPa NNE 2 mph /  3.2 km/h 3 mph /  4.8 km/h 87 % 0 in /  0.0 mm
05:32 40.3 °F /  4.6 °C 36.7 °F /  2.6 °C 29.7 in /  1006.7 hPa Calm   4 mph /  6.4 km/h 87 % 0 in /  0.0 mm
05:42 40.3 °F /  4.6 °C 37 °F /  2.8 °C 29.7 in /  1006.7 hPa Calm   4 mph /  6.4 km/h 88 % 0 in /  0.0 mm
05:52 40.3 °F /  4.6 °C 37 °F /  2.8 °C 29.7 in /  1007.0 hPa Calm   4 mph /  6.4 km/h 88 % 0 in /  0.0 mm
06:02 40.5 °F /  4.7 °C 37.2 °F /  2.9 °C 29.7 in /  1007.0 hPa Calm   1 mph /  1.6 km/h 88 % 0 in /  0.0 mm
06:12 40.6 °F /  4.8 °C 37.4 °F /  3.0 °C 29.7 in /  1007.3 hPa WSW 4 mph /  6.4 km/h 4 mph /  6.4 km/h 88 % 0 in /  0.0 mm
06:17 40.6 °F /  4.8 °C 37.4 °F /  3.0 °C 29.7 in /  1007.0 hPa Calm   4 mph /  6.4 km/h 88 % 0 in /  0.0 mm
06:22 40.6 °F /  4.8 °C 37.4 °F /  3.0 °C 29.7 in /  1007.3 hPa Calm   4 mph /  6.4 km/h 88 % 0 in /  0.0 mm
06:27 40.6 °F /  4.8 °C 37.6 °F /  3.1 °C 29.7 in /  1007.3 hPa Calm   4 mph /  6.4 km/h 89 % 0 in /  0.0 mm
06:32 40.6 °F /  4.8 °C 37.6 °F /  3.1 °C 29.7 in /  1007.3 hPa SSW 1 mph /  1.6 km/h 4 mph /  6.4 km/h 89 % 0 in /  0.0 mm
06:37 40.8 °F /  4.9 °C 38.1 °F /  3.4 °C 29.7 in /  1007.3 hPa SSW 1 mph /  1.6 km/h 3 mph /  4.8 km/h 90 % 0 in /  0.0 mm
06:42 41 °F /  5.0 °C 38.3 °F /  3.5 °C 29.7 in /  1007.3 hPa WSW 1 mph /  1.6 km/h 3 mph /  4.8 km/h 90 % 0 in /  0.0 mm
06:47 41.4 °F /  5.2 °C 38.3 °F /  3.5 °C 29.7 in /  1007.3 hPa SSW 1 mph /  1.6 km/h 5 mph /  8.0 km/h 89 % 0 in /  0.0 mm
06:52 41.4 °F /  5.2 °C 38.3 °F /  3.5 °C 29.7 in /  1007.3 hPa South 1 mph /  1.6 km/h 5 mph /  8.0 km/h 89 % 0 in /  0.0 mm
07:02 41.2 °F /  5.1 °C 38.5 °F /  3.6 °C 29.7 in /  1007.3 hPa SSW 2 mph /  3.2 km/h 5 mph /  8.0 km/h 90 % 0 in /  0.0 mm
07:12 41 °F /  5.0 °C 38.7 °F /  3.7 °C 29.7 in /  1007.3 hPa Calm   2 mph /  3.2 km/h 91 % 0 in /  0.0 mm
07:17 41.2 °F /  5.1 °C 38.8 °F /  3.8 °C 29.7 in /  1007.3 hPa SSE 1 mph /  1.6 km/h 2 mph /  3.2 km/h 91 % 0 in /  0.0 mm
07:22 41.4 °F /  5.2 °C 39 °F /  3.9 °C 29.7 in /  1007.3 hPa Calm   2 mph /  3.2 km/h 91 % 0 in /  0.0 mm
07:32 41.5 °F /  5.3 °C 39.2 °F /  4.0 °C 29.8 in /  1007.7 hPa Calm   1 mph /  1.6 km/h 91 % 0 in /  0.0 mm
07:37 41.5 °F /  5.3 °C 39.2 °F /  4.0 °C 29.8 in /  1007.7 hPa Calm   1 mph /  1.6 km/h 91 % 0 in /  0.0 mm
07:42 41.5 °F /  5.3 °C 39.2 °F /  4.0 °C 29.8 in /  1007.7 hPa Calm   1 mph /  1.6 km/h 91 % 0 in /  0.0 mm
07:47 41.5 °F /  5.3 °C 39.2 °F /  4.0 °C 29.8 in /  1007.7 hPa Calm   1 mph /  1.6 km/h 91 % 0 in /  0.0 mm
07:52 41.5 °F /  5.3 °C 39.2 °F /  4.0 °C 29.8 in /  1008.0 hPa Calm     91 % 0.01 in /  0.3 mm
07:57 41.5 °F /  5.3 °C 39.4 °F /  4.1 °C 29.8 in /  1008.0 hPa SW 1 mph /  1.6 km/h   92 % 0.01 in /  0.3 mm
08:02 41.7 °F /  5.4 °C 39.6 °F /  4.2 °C 29.8 in /  1008.0 hPa SW 1 mph /  1.6 km/h 2 mph /  3.2 km/h 92 % 0.01 in /  0.3 mm
08:07 41.7 °F /  5.4 °C 39.6 °F /  4.2 °C 29.8 in /  1008.0 hPa Calm   2 mph /  3.2 km/h 92 % 0.01 in /  0.3 mm
08:12 41.7 °F /  5.4 °C 39.6 °F /  4.2 °C 29.8 in /  1008.4 hPa SSW 1 mph /  1.6 km/h 3 mph /  4.8 km/h 92 % 0.01 in /  0.3 mm
08:17 41.9 °F /  5.5 °C 39.7 °F /  4.3 °C 29.8 in /  1008.4 hPa South 4 mph /  6.4 km/h 4 mph /  6.4 km/h 92 % 0.01 in /  0.3 mm
08:22 41.9 °F /  5.5 °C 40.1 °F /  4.5 °C 29.8 in /  1008.4 hPa SSW 1 mph /  1.6 km/h 5 mph /  8.0 km/h 93 % 0.01 in /  0.3 mm
08:27 41.9 °F /  5.5 °C 40.1 °F /  4.5 °C 29.8 in /  1008.4 hPa Calm   5 mph /  8.0 km/h 93 % 0.01 in /  0.3 mm
08:32 41.9 °F /  5.5 °C 40.1 °F /  4.5 °C 29.8 in /  1008.4 hPa Calm   5 mph /  8.0 km/h 93 % 0.02 in /  0.5 mm
08:42 41.7 °F /  5.4 °C 39.9 °F /  4.4 °C 29.8 in /  1008.4 hPa Calm   1 mph /  1.6 km/h 93 % 0.02 in /  0.5 mm
08:47 41.9 °F /  5.5 °C 40.1 °F /  4.5 °C 29.8 in /  1008.0 hPa Calm   1 mph /  1.6 km/h 93 % 0.02 in /  0.5 mm
08:52 41.9 °F /  5.5 °C 40.1 °F /  4.5 °C 29.8 in /  1008.0 hPa SE 1 mph /  1.6 km/h 1 mph /  1.6 km/h 93 % 0.01 in /  0.3 mm
09:02 42.4 °F /  5.8 °C 40.6 °F /  4.8 °C 29.8 in /  1008.0 hPa Calm   1 mph /  1.6 km/h 93 % 0.01 in /  0.3 mm
09:07 42.3 °F /  5.7 °C 40.5 °F /  4.7 °C 29.8 in /  1008.4 hPa SE 1 mph /  1.6 km/h 1 mph /  1.6 km/h 93 % 0.01 in /  0.3 mm
09:12 42.6 °F /  5.9 °C 41 °F /  5.0 °C 29.8 in /  1008.4 hPa SE 1 mph /  1.6 km/h 2 mph /  3.2 km/h 94 % 0.02 in /  0.5 mm
09:17 43.3 °F /  6.3 °C 41.5 °F /  5.3 °C 29.8 in /  1008.4 hPa SE 1 mph /  1.6 km/h 2 mph /  3.2 km/h 93 % 0.02 in /  0.5 mm
09:22 43.5 °F /  6.4 °C 41.7 °F /  5.4 °C 29.8 in /  1008.4 hPa SSW 1 mph /  1.6 km/h 2 mph /  3.2 km/h 93 % 0.02 in /  0.5 mm
09:27 44.2 °F /  6.8 °C 42.1 °F /  5.6 °C 29.8 in /  1008.4 hPa SSW 1 mph /  1.6 km/h 2 mph /  3.2 km/h 92 % 0.02 in /  0.5 mm
09:32 44.6 °F /  7.0 °C 42.1 °F /  5.6 °C 29.8 in /  1008.4 hPa SW 1 mph /  1.6 km/h 3 mph /  4.8 km/h 91 % 0.01 in /  0.3 mm
09:37 44.8 °F /  7.1 °C 42.1 °F /  5.6 °C 29.8 in /  1008.4 hPa SSE 1 mph /  1.6 km/h 3 mph /  4.8 km/h 90 % 0.01 in /  0.3 mm
09:42 45 °F /  7.2 °C 42.3 °F /  5.7 °C 29.8 in /  1008.4 hPa Calm   2 mph /  3.2 km/h 90 % 0.01 in /  0.3 mm
09:47 44.8 °F /  7.1 °C 41.7 °F /  5.4 °C 29.8 in /  1008.4 hPa Calm   2 mph /  3.2 km/h 89 % 0.01 in /  0.3 mm
09:52 45 °F /  7.2 °C 42.3 °F /  5.7 °C 29.8 in /  1008.4 hPa Calm   2 mph /  3.2 km/h 90 % 0.01 in /  0.3 mm
09:57 45.1 °F /  7.3 °C 42.1 °F /  5.6 °C 29.8 in /  1008.4 hPa Calm   2 mph /  3.2 km/h 89 % 0.01 in /  0.3 mm
10:02 45.1 °F /  7.3 °C 42.1 °F /  5.6 °C 29.8 in /  1008.7 hPa SW 1 mph /  1.6 km/h 2 mph /  3.2 km/h 89 % 0.01 in /  0.3 mm
10:07 45 °F /  7.2 °C 41.9 °F /  5.5 °C 29.8 in /  1008.7 hPa SSW 3 mph /  4.8 km/h 3 mph /  4.8 km/h 89 % 0.01 in /  0.3 mm
10:12 44.8 °F /  7.1 °C 42.1 °F /  5.6 °C 29.8 in /  1009.0 hPa SW 7 mph /  11.3 km/h 7 mph /  11.3 km/h 90 % 0 in /  0.0 mm
10:17 44.2 °F /  6.8 °C 41.5 °F /  5.3 °C 29.8 in /  1009.4 hPa WSW 6 mph /  9.7 km/h 6 mph /  9.7 km/h 90 % 0 in /  0.0 mm
10:22 44.1 °F /  6.7 °C 41.5 °F /  5.3 °C 29.8 in /  1009.0 hPa SSW 6 mph /  9.7 km/h 12 mph /  19.3 km/h 91 % 0 in /  0.0 mm
10:27 44.1 °F /  6.7 °C 41.5 °F /  5.3 °C 29.8 in /  1009.4 hPa SW 7 mph /  11.3 km/h 12 mph /  19.3 km/h 91 % 0 in /  0.0 mm
10:32 44.1 °F /  6.7 °C 41.5 °F /  5.3 °C 29.8 in /  1009.0 hPa WSW 7 mph /  11.3 km/h 12 mph /  19.3 km/h 91 % 0 in /  0.0 mm
10:37 44.1 °F /  6.7 °C 41.5 °F /  5.3 °C 29.8 in /  1009.0 hPa SW 6 mph /  9.7 km/h 12 mph /  19.3 km/h 91 % 0 in /  0.0 mm
10:42 43.9 °F /  6.6 °C 41.4 °F /  5.2 °C 29.8 in /  1009.0 hPa Calm   8 mph /  12.9 km/h 91 % 0 in /  0.0 mm
10:47 43.9 °F /  6.6 °C 41.4 °F /  5.2 °C 29.8 in /  1009.0 hPa WSW 2 mph /  3.2 km/h 8 mph /  12.9 km/h 91 % 0 in /  0.0 mm
10:52 43.9 °F /  6.6 °C 41.4 °F /  5.2 °C 29.8 in /  1009.0 hPa WSW 1 mph /  1.6 km/h 7 mph /  11.3 km/h 91 % 0 in /  0.0 mm
10:57 43.9 °F /  6.6 °C 41.4 °F /  5.2 °C 29.8 in /  1009.0 hPa WSW 3 mph /  4.8 km/h 7 mph /  11.3 km/h 91 % 0 in /  0.0 mm
11:02 43.9 °F /  6.6 °C 41.4 °F /  5.2 °C 29.8 in /  1009.0 hPa Calm   3 mph /  4.8 km/h 91 % 0 in /  0.0 mm
11:07 43.9 °F /  6.6 °C 41.4 °F /  5.2 °C 29.8 in /  1009.0 hPa Calm   3 mph /  4.8 km/h 91 % 0 in /  0.0 mm
11:12 44.1 °F /  6.7 °C 41.5 °F /  5.3 °C 29.8 in /  1009.0 hPa SW 1 mph /  1.6 km/h 3 mph /  4.8 km/h 91 % 0 in /  0.0 mm
11:17 44.1 °F /  6.7 °C 41.5 °F /  5.3 °C 29.8 in /  1009.4 hPa West 2 mph /  3.2 km/h 3 mph /  4.8 km/h 91 % 0 in /  0.0 mm
11:27 44.2 °F /  6.8 °C 42.1 °F /  5.6 °C 29.8 in /  1009.4 hPa WSW 3 mph /  4.8 km/h 3 mph /  4.8 km/h 92 % 0 in /  0.0 mm
11:32 44.4 °F /  6.9 °C 42.3 °F /  5.7 °C 29.8 in /  1009.0 hPa WSW 4 mph /  6.4 km/h 5 mph /  8.0 km/h 92 % 0 in /  0.0 mm
11:37 44.4 °F /  6.9 °C 41.9 °F /  5.5 °C 29.8 in /  1009.4 hPa WSW 7 mph /  11.3 km/h 7 mph /  11.3 km/h 91 % 0 in /  0.0 mm
11:42 44.4 °F /  6.9 °C 42.3 °F /  5.7 °C 29.8 in /  1009.4 hPa WSW 3 mph /  4.8 km/h 7 mph /  11.3 km/h 92 % 0 in /  0.0 mm
11:52 44.2 °F /  6.8 °C 41.7 °F /  5.4 °C 29.8 in /  1009.0 hPa SW 2 mph /  3.2 km/h 7 mph /  11.3 km/h 91 % 0 in /  0.0 mm
11:57 44.4 °F /  6.9 °C 42.3 °F /  5.7 °C 29.8 in /  1009.4 hPa WSW 1 mph /  1.6 km/h 7 mph /  11.3 km/h 92 % 0 in /  0.0 mm
12:02 44.4 °F /  6.9 °C 41.9 °F /  5.5 °C 29.8 in /  1009.4 hPa WSW 2 mph /  3.2 km/h 5 mph /  8.0 km/h 91 % 0 in /  0.0 mm
12:07 44.6 °F /  7.0 °C 42.1 °F /  5.6 °C 29.8 in /  1009.4 hPa West 1 mph /  1.6 km/h 5 mph /  8.0 km/h 91 % 0 in /  0.0 mm
12:12 44.8 °F /  7.1 °C 42.3 °F /  5.7 °C 29.8 in /  1009.4 hPa West 1 mph /  1.6 km/h 4 mph /  6.4 km/h 91 % 0 in /  0.0 mm
12:17 44.8 °F /  7.1 °C 42.1 °F /  5.6 °C 29.8 in /  1009.4 hPa West 3 mph /  4.8 km/h 4 mph /  6.4 km/h 90 % 0 in /  0.0 mm
12:22 44.6 °F /  7.0 °C 41.9 °F /  5.5 °C 29.8 in /  1009.4 hPa West 2 mph /  3.2 km/h 5 mph /  8.0 km/h 90 % 0 in /  0.0 mm
12:32 44.8 °F /  7.1 °C 42.1 °F /  5.6 °C 29.8 in /  1009.4 hPa West 1 mph /  1.6 km/h 5 mph /  8.0 km/h 90 % 0 in /  0.0 mm
12:37 44.8 °F /  7.1 °C 42.1 °F /  5.6 °C 29.8 in /  1009.4 hPa WNW 1 mph /  1.6 km/h 5 mph /  8.0 km/h 90 % 0 in /  0.0 mm
12:42 45.1 °F /  7.3 °C 42.4 °F /  5.8 °C 29.8 in /  1009.4 hPa West 2 mph /  3.2 km/h 4 mph /  6.4 km/h 90 % 0.01 in /  0.3 mm
12:47 45.5 °F /  7.5 °C 42.8 °F /  6.0 °C 29.8 in /  1009.0 hPa Calm   4 mph /  6.4 km/h 90 % 0.01 in /  0.3 mm
12:52 46 °F /  7.8 °C 43 °F /  6.1 °C 29.8 in /  1009.4 hPa Calm   5 mph /  8.0 km/h 89 % 0.01 in /  0.3 mm
12:57 46.2 °F /  7.9 °C 42.8 °F /  6.0 °C 29.8 in /  1009.4 hPa SE 1 mph /  1.6 km/h 5 mph /  8.0 km/h 88 % 0.01 in /  0.3 mm
13:02 46.8 °F /  8.2 °C 43.3 °F /  6.3 °C 29.8 in /  1009.4 hPa NE 2 mph /  3.2 km/h 5 mph /  8.0 km/h 88 % 0.01 in /  0.3 mm
13:12 47.5 °F /  8.6 °C 43.9 °F /  6.6 °C 29.8 in /  1009.4 hPa Calm   2 mph /  3.2 km/h 87 % 0.01 in /  0.3 mm
13:17 47.5 °F /  8.6 °C 43.9 °F /  6.6 °C 29.8 in /  1009.4 hPa NNE 1 mph /  1.6 km/h 3 mph /  4.8 km/h 87 % 0.01 in /  0.3 mm
13:22 47.7 °F /  8.7 °C 44.1 °F /  6.7 °C 29.8 in /  1009.4 hPa Calm   3 mph /  4.8 km/h 87 % 0.01 in /  0.3 mm
13:32 48 °F /  8.9 °C 44.1 °F /  6.7 °C 29.8 in /  1009.7 hPa Calm   1 mph /  1.6 km/h 86 % 0.01 in /  0.3 mm
13:37 47.7 °F /  8.7 °C 43.3 °F /  6.3 °C 29.8 in /  1009.7 hPa Calm     85 % 0 in /  0.0 mm
13:42 47.7 °F /  8.7 °C 43.3 °F /  6.3 °C 29.8 in /  1010.0 hPa SW 3 mph /  4.8 km/h   85 % 0 in /  0.0 mm
13:47 47.5 °F /  8.6 °C 43.5 °F /  6.4 °C 29.8 in /  1010.0 hPa Calm   4 mph /  6.4 km/h 86 % 0 in /  0.0 mm
13:52 47.5 °F /  8.6 °C 43.2 °F /  6.2 °C 29.8 in /  1010.0 hPa SSW 4 mph /  6.4 km/h 4 mph /  6.4 km/h 85 % 0 in /  0.0 mm
13:57 47.3 °F /  8.5 °C 43.3 °F /  6.3 °C 29.8 in /  1010.0 hPa South 1 mph /  1.6 km/h 7 mph /  11.3 km/h 86 % 0 in /  0.0 mm
14:02 47.1 °F /  8.4 °C 43.2 °F /  6.2 °C 29.8 in /  1010.0 hPa SSW 2 mph /  3.2 km/h 7 mph /  11.3 km/h 86 % 0 in /  0.0 mm
14:07 46.8 °F /  8.2 °C 43.2 °F /  6.2 °C 29.8 in /  1010.0 hPa SSW 3 mph /  4.8 km/h 7 mph /  11.3 km/h 87 % 0.01 in /  0.3 mm
14:12 46.8 °F /  8.2 °C 43.2 °F /  6.2 °C 29.8 in /  1010.0 hPa SSW 2 mph /  3.2 km/h 7 mph /  11.3 km/h 87 % 0.01 in /  0.3 mm
14:17 46.6 °F /  8.1 °C 43 °F /  6.1 °C 29.8 in /  1010.0 hPa South 1 mph /  1.6 km/h 6 mph /  9.7 km/h 87 % 0.01 in /  0.3 mm
14:22 46.6 °F /  8.1 °C 42.6 °F /  5.9 °C 29.8 in /  1010.0 hPa SSE 2 mph /  3.2 km/h 6 mph /  9.7 km/h 86 % 0.01 in /  0.3 mm
14:27 46.6 °F /  8.1 °C 43 °F /  6.1 °C 29.8 in /  1010.0 hPa SSW 5 mph /  8.0 km/h 7 mph /  11.3 km/h 87 % 0.01 in /  0.3 mm
14:32 46.4 °F /  8.0 °C 42.8 °F /  6.0 °C 29.8 in /  1010.4 hPa SSW 7 mph /  11.3 km/h 7 mph /  11.3 km/h 87 % 0.01 in /  0.3 mm
14:37 46.4 °F /  8.0 °C 43 °F /  6.1 °C 29.8 in /  1010.4 hPa SSW 7 mph /  11.3 km/h 8 mph /  12.9 km/h 88 % 0.01 in /  0.3 mm
14:42 46 °F /  7.8 °C 43 °F /  6.1 °C 29.8 in /  1010.7 hPa SW 6 mph /  9.7 km/h 8 mph /  12.9 km/h 89 % 0.01 in /  0.3 mm
14:52 45.3 °F /  7.4 °C 42.8 °F /  6.0 °C 29.8 in /  1010.4 hPa SSW 5 mph /  8.0 km/h 12 mph /  19.3 km/h 91 % 0.02 in /  0.5 mm
15:02 45.1 °F /  7.3 °C 43 °F /  6.1 °C 29.8 in /  1010.0 hPa WSW 3 mph /  4.8 km/h 12 mph /  19.3 km/h 92 % 0.04 in /  1.0 mm
15:07 45.3 °F /  7.4 °C 43.3 °F /  6.3 °C 29.8 in /  1010.0 hPa WSW 3 mph /  4.8 km/h 8 mph /  12.9 km/h 93 % 0.05 in /  1.3 mm
15:12 45.3 °F /  7.4 °C 42.8 °F /  6.0 °C 29.8 in /  1010.0 hPa WSW 7 mph /  11.3 km/h 8 mph /  12.9 km/h 91 % 0.05 in /  1.3 mm
15:22 45.1 °F /  7.3 °C 43 °F /  6.1 °C 29.8 in /  1010.0 hPa WSW 3 mph /  4.8 km/h 12 mph /  19.3 km/h 92 % 0.05 in /  1.3 mm
15:27 45.3 °F /  7.4 °C 43.2 °F /  6.2 °C 29.8 in /  1010.4 hPa SW 4 mph /  6.4 km/h 13 mph /  20.9 km/h 92 % 0.06 in /  1.5 mm
15:32 45.7 °F /  7.6 °C 43.5 °F /  6.4 °C 29.8 in /  1010.0 hPa WSW 2 mph /  3.2 km/h 13 mph /  20.9 km/h 92 % 0.06 in /  1.5 mm
15:42 45.7 °F /  7.6 °C 43.2 °F /  6.2 °C 29.8 in /  1010.4 hPa WSW 7 mph /  11.3 km/h 11 mph /  17.7 km/h 91 % 0.06 in /  1.5 mm
15:47 45.7 °F /  7.6 °C 43.2 °F /  6.2 °C 29.8 in /  1010.4 hPa West 7 mph /  11.3 km/h 11 mph /  17.7 km/h 91 % 0.04 in /  1.0 mm
15:52 45.1 °F /  7.3 °C 42.1 °F /  5.6 °C 29.8 in /  1010.4 hPa West 9 mph /  14.5 km/h 11 mph /  17.7 km/h 89 % 0.04 in /  1.0 mm
16:02 45.1 °F /  7.3 °C 42.1 °F /  5.6 °C 29.8 in /  1010.7 hPa West 8 mph /  12.9 km/h 13 mph /  20.9 km/h 89 % 0.02 in /  0.5 mm
16:12 45.7 °F /  7.6 °C 42.6 °F /  5.9 °C 29.8 in /  1010.7 hPa West 6 mph /  9.7 km/h 13 mph /  20.9 km/h 89 % 0.01 in /  0.3 mm
16:17 45.7 °F /  7.6 °C 42.3 °F /  5.7 °C 29.9 in /  1011.1 hPa SW 6 mph /  9.7 km/h 9 mph /  14.5 km/h 88 % 0.01 in /  0.3 mm
16:22 45.7 °F /  7.6 °C 41.7 °F /  5.4 °C 29.8 in /  1010.7 hPa West 6 mph /  9.7 km/h 9 mph /  14.5 km/h 86 % 0.01 in /  0.3 mm
16:32 45.7 °F /  7.6 °C 41.7 °F /  5.4 °C 29.9 in /  1011.1 hPa West 4 mph /  6.4 km/h 9 mph /  14.5 km/h 86 % 0 in /  0.0 mm
16:37 45.7 °F /  7.6 °C 41.7 °F /  5.4 °C 29.9 in /  1011.1 hPa WSW 1 mph /  1.6 km/h 9 mph /  14.5 km/h 86 % 0 in /  0.0 mm
16:42 45.7 °F /  7.6 °C 41.7 °F /  5.4 °C 29.9 in /  1011.1 hPa West 5 mph /  8.0 km/h 9 mph /  14.5 km/h 86 % 0 in /  0.0 mm
16:47 45.7 °F /  7.6 °C 41.7 °F /  5.4 °C 29.9 in /  1011.4 hPa WSW 5 mph /  8.0 km/h 8 mph /  12.9 km/h 86 % 0 in /  0.0 mm
16:52 45.5 °F /  7.5 °C 41.5 °F /  5.3 °C 29.9 in /  1011.4 hPa WSW 3 mph /  4.8 km/h 8 mph /  12.9 km/h 86 % 0 in /  0.0 mm
16:57 45.3 °F /  7.4 °C 41.4 °F /  5.2 °C 29.9 in /  1011.7 hPa WSW 4 mph /  6.4 km/h 7 mph /  11.3 km/h 86 % 0 in /  0.0 mm
17:02 45.3 °F /  7.4 °C 41.7 °F /  5.4 °C 29.9 in /  1011.7 hPa WSW 1 mph /  1.6 km/h 7 mph /  11.3 km/h 87 % 0 in /  0.0 mm
17:12 45.3 °F /  7.4 °C 41.7 °F /  5.4 °C 29.9 in /  1011.7 hPa SW 2 mph /  3.2 km/h 6 mph /  9.7 km/h 87 % 0 in /  0.0 mm
17:17 45.3 °F /  7.4 °C 41.7 °F /  5.4 °C 29.9 in /  1011.7 hPa Calm   3 mph /  4.8 km/h 87 % 0 in /  0.0 mm
17:22 45.3 °F /  7.4 °C 41.9 °F /  5.5 °C 29.9 in /  1011.7 hPa Calm   3 mph /  4.8 km/h 88 % 0 in /  0.0 mm
17:32 45.5 °F /  7.5 °C 42.1 °F /  5.6 °C 29.9 in /  1011.7 hPa Calm   3 mph /  4.8 km/h 88 % 0 in /  0.0 mm
17:42 45.3 °F /  7.4 °C 41.9 °F /  5.5 °C 29.9 in /  1012.1 hPa Calm   3 mph /  4.8 km/h 88 % 0 in /  0.0 mm
17:47 45.3 °F /  7.4 °C 41.9 °F /  5.5 °C 29.9 in /  1012.1 hPa Calm   3 mph /  4.8 km/h 88 % 0 in /  0.0 mm
17:52 45.3 °F /  7.4 °C 42.3 °F /  5.7 °C 29.9 in /  1012.4 hPa ESE 1 mph /  1.6 km/h 3 mph /  4.8 km/h 89 % 0 in /  0.0 mm
17:57 45.3 °F /  7.4 °C 42.3 °F /  5.7 °C 29.9 in /  1012.4 hPa Calm   2 mph /  3.2 km/h 89 % 0 in /  0.0 mm
18:02 45.3 °F /  7.4 °C 42.3 °F /  5.7 °C 29.9 in /  1012.8 hPa Calm   2 mph /  3.2 km/h 89 % 0 in /  0.0 mm
18:12 45.1 °F /  7.3 °C 42.4 °F /  5.8 °C 29.9 in /  1013.1 hPa Calm   2 mph /  3.2 km/h 90 % 0 in /  0.0 mm
18:17 45.1 °F /  7.3 °C 42.4 °F /  5.8 °C 29.9 in /  1013.1 hPa ESE 3 mph /  4.8 km/h 3 mph /  4.8 km/h 90 % 0 in /  0.0 mm
18:22 45.1 °F /  7.3 °C 42.4 °F /  5.8 °C 29.9 in /  1013.1 hPa Calm   3 mph /  4.8 km/h 90 % 0 in /  0.0 mm
18:27 45 °F /  7.2 °C 42.3 °F /  5.7 °C 29.9 in /  1013.1 hPa Calm   3 mph /  4.8 km/h 90 % 0 in /  0.0 mm
18:32 45 °F /  7.2 °C 42.3 °F /  5.7 °C 29.9 in /  1013.4 hPa SE 1 mph /  1.6 km/h 3 mph /  4.8 km/h 90 % 0 in /  0.0 mm
18:37 45 °F /  7.2 °C 42.3 °F /  5.7 °C 29.9 in /  1013.4 hPa Calm   3 mph /  4.8 km/h 90 % 0 in /  0.0 mm
18:42 45 °F /  7.2 °C 42.3 °F /  5.7 °C 29.9 in /  1013.4 hPa Calm   3 mph /  4.8 km/h 90 % 0 in /  0.0 mm
18:47 44.8 °F /  7.1 °C 42.1 °F /  5.6 °C 29.9 in /  1013.1 hPa Calm   3 mph /  4.8 km/h 90 % 0 in /  0.0 mm
18:57 44.8 °F /  7.1 °C 42.3 °F /  5.7 °C 29.9 in /  1013.1 hPa Calm   2 mph /  3.2 km/h 91 % 0 in /  0.0 mm
19:02 44.6 °F /  7.0 °C 42.1 °F /  5.6 °C 29.9 in /  1013.1 hPa Calm   2 mph /  3.2 km/h 91 % 0 in /  0.0 mm
19:12 44.4 °F /  6.9 °C 41.9 °F /  5.5 °C 29.9 in /  1013.4 hPa Calm   2 mph /  3.2 km/h 91 % 0 in /  0.0 mm
19:17 44.4 °F /  6.9 °C 42.3 °F /  5.7 °C 29.9 in /  1013.4 hPa Calm   2 mph /  3.2 km/h 92 % 0 in /  0.0 mm
19:22 44.2 °F /  6.8 °C 42.1 °F /  5.6 °C 29.9 in /  1013.8 hPa Calm   2 mph /  3.2 km/h 92 % 0 in /  0.0 mm
19:32 44.2 °F /  6.8 °C 42.1 °F /  5.6 °C 29.9 in /  1013.8 hPa Calm   1 mph /  1.6 km/h 92 % 0 in /  0.0 mm
19:37 44.2 °F /  6.8 °C 42.1 °F /  5.6 °C 29.9 in /  1013.8 hPa Calm   1 mph /  1.6 km/h 92 % 0 in /  0.0 mm
19:42 44.2 °F /  6.8 °C 42.3 °F /  5.7 °C 29.9 in /  1014.1 hPa SW 2 mph /  3.2 km/h 2 mph /  3.2 km/h 93 % 0 in /  0.0 mm
19:52 44.2 °F /  6.8 °C 42.3 °F /  5.7 °C 30 in /  1014.4 hPa SSW 1 mph /  1.6 km/h 3 mph /  4.8 km/h 93 % 0 in /  0.0 mm
19:57 44.2 °F /  6.8 °C 42.3 °F /  5.7 °C 30 in /  1014.4 hPa SW 2 mph /  3.2 km/h 3 mph /  4.8 km/h 93 % 0 in /  0.0 mm
20:02 44.2 °F /  6.8 °C 42.3 °F /  5.7 °C 30 in /  1014.4 hPa SSW 2 mph /  3.2 km/h 3 mph /  4.8 km/h 93 % 0 in /  0.0 mm
20:07 44.2 °F /  6.8 °C 42.3 °F /  5.7 °C 30 in /  1014.8 hPa SSW 3 mph /  4.8 km/h 4 mph /  6.4 km/h 93 % 0 in /  0.0 mm
20:12 44.2 °F /  6.8 °C 42.3 °F /  5.7 °C 30 in /  1014.8 hPa SSW 2 mph /  3.2 km/h 4 mph /  6.4 km/h 93 % 0 in /  0.0 mm
20:17 44.2 °F /  6.8 °C 42.3 °F /  5.7 °C 30 in /  1014.8 hPa SSW 1 mph /  1.6 km/h 5 mph /  8.0 km/h 93 % 0 in /  0.0 mm
20:22 44.1 °F /  6.7 °C 42.1 °F /  5.6 °C 30 in /  1015.1 hPa SSW 1 mph /  1.6 km/h 5 mph /  8.0 km/h 93 % 0 in /  0.0 mm
20:27 44.1 °F /  6.7 °C 42.1 °F /  5.6 °C 30 in /  1015.1 hPa Calm   4 mph /  6.4 km/h 93 % 0 in /  0.0 mm
20:37 44.1 °F /  6.7 °C 41.9 °F /  5.5 °C 30 in /  1015.5 hPa Calm   4 mph /  6.4 km/h 92 % 0 in /  0.0 mm
20:42 44.1 °F /  6.7 °C 42.1 °F /  5.6 °C 30 in /  1015.5 hPa South 1 mph /  1.6 km/h 4 mph /  6.4 km/h 93 % 0 in /  0.0 mm
20:52 44.1 °F /  6.7 °C 42.1 °F /  5.6 °C 30 in /  1015.5 hPa Calm   4 mph /  6.4 km/h 93 % 0 in /  0.0 mm
20:57 44.1 °F /  6.7 °C 42.1 °F /  5.6 °C 30 in /  1015.5 hPa Calm   2 mph /  3.2 km/h 93 % 0 in /  0.0 mm
21:02 43.9 °F /  6.6 °C 41.9 °F /  5.5 °C 30 in /  1015.5 hPa South 1 mph /  1.6 km/h 2 mph /  3.2 km/h 93 % 0 in /  0.0 mm
21:12 43.9 °F /  6.6 °C 41.9 °F /  5.5 °C 30 in /  1015.5 hPa Calm   2 mph /  3.2 km/h 93 % 0 in /  0.0 mm
21:17 43.7 °F /  6.5 °C 41.7 °F /  5.4 °C 30 in /  1015.8 hPa SSW 1 mph /  1.6 km/h 2 mph /  3.2 km/h 93 % 0 in /  0.0 mm
21:22 43.7 °F /  6.5 °C 41.7 °F /  5.4 °C 30 in /  1015.8 hPa Calm   2 mph /  3.2 km/h 93 % 0 in /  0.0 mm
21:27 43.7 °F /  6.5 °C 41.7 °F /  5.4 °C 30 in /  1016.1 hPa SW 1 mph /  1.6 km/h 2 mph /  3.2 km/h 93 % 0 in /  0.0 mm
21:32 43.7 °F /  6.5 °C 41.7 °F /  5.4 °C 30 in /  1016.1 hPa SSW 1 mph /  1.6 km/h 2 mph /  3.2 km/h 93 % 0 in /  0.0 mm
21:42 43.7 °F /  6.5 °C 41.7 °F /  5.4 °C 30 in /  1016.1 hPa Calm   3 mph /  4.8 km/h 93 % 0 in /  0.0 mm
21:52 43.7 °F /  6.5 °C 41.7 °F /  5.4 °C 30 in /  1016.1 hPa SW 3 mph /  4.8 km/h 3 mph /  4.8 km/h 93 % 0 in /  0.0 mm
21:57 43.7 °F /  6.5 °C 41.7 °F /  5.4 °C 30 in /  1016.1 hPa Calm   4 mph /  6.4 km/h 93 % 0 in /  0.0 mm
22:02 43.5 °F /  6.4 °C 41.7 °F /  5.4 °C 30 in /  1016.1 hPa Calm   4 mph /  6.4 km/h 93 % 0 in /  0.0 mm
22:07 43.5 °F /  6.4 °C 41.7 °F /  5.4 °C 30 in /  1016.1 hPa SSW 1 mph /  1.6 km/h 3 mph /  4.8 km/h 93 % 0 in /  0.0 mm
22:17 43.5 °F /  6.4 °C 41.4 °F /  5.2 °C 30 in /  1016.5 hPa SSW 1 mph /  1.6 km/h 2 mph /  3.2 km/h 92 % 0 in /  0.0 mm
22:22 43.3 °F /  6.3 °C 41.2 °F /  5.1 °C 30 in /  1016.5 hPa Calm   2 mph /  3.2 km/h 92 % 0 in /  0.0 mm
22:27 43.3 °F /  6.3 °C 41.2 °F /  5.1 °C 30 in /  1016.5 hPa Calm   1 mph /  1.6 km/h 92 % 0 in /  0.0 mm
22:32 43.2 °F /  6.2 °C 41 °F /  5.0 °C 30 in /  1016.8 hPa SW 1 mph /  1.6 km/h 1 mph /  1.6 km/h 92 % 0 in /  0.0 mm
22:42 43.2 °F /  6.2 °C 41.4 °F /  5.2 °C 30 in /  1016.8 hPa West 1 mph /  1.6 km/h 2 mph /  3.2 km/h 93 % 0 in /  0.0 mm
22:52 43.2 °F /  6.2 °C 41 °F /  5.0 °C 30 in /  1016.8 hPa Calm   2 mph /  3.2 km/h 92 % 0 in /  0.0 mm
22:57 43 °F /  6.1 °C 40.8 °F /  4.9 °C 30 in /  1017.2 hPa Calm   1 mph /  1.6 km/h 92 % 0 in /  0.0 mm
23:02 43 °F /  6.1 °C 40.8 °F /  4.9 °C 30 in /  1017.2 hPa Calm   1 mph /  1.6 km/h 92 % 0 in /  0.0 mm
23:12 42.6 °F /  5.9 °C 40.8 °F /  4.9 °C 30.1 in /  1017.5 hPa Calm     93 % 0 in /  0.0 mm
23:17 42.6 °F /  5.9 °C 40.8 °F /  4.9 °C 30.1 in /  1017.5 hPa Calm   1 mph /  1.6 km/h 93 % 0 in /  0.0 mm
23:22 42.4 °F /  5.8 °C 40.6 °F /  4.8 °C 30.1 in /  1017.5 hPa Calm   1 mph /  1.6 km/h 93 % 0 in /  0.0 mm
23:32 42.1 °F /  5.6 °C 40.3 °F /  4.6 °C 30.1 in /  1017.5 hPa ENE 1 mph /  1.6 km/h 2 mph /  3.2 km/h 93 % 0 in /  0.0 mm
23:37 41.7 °F /  5.4 °C 39.9 °F /  4.4 °C 30.1 in /  1017.8 hPa Calm   2 mph /  3.2 km/h 93 % 0 in /  0.0 mm
23:42 41.7 °F /  5.4 °C 40.1 °F /  4.5 °C 30.1 in /  1017.8 hPa East 2 mph /  3.2 km/h 2 mph /  3.2 km/h 94 % 0 in /  0.0 mm
23:52 41.5 °F /  5.3 °C 39.7 °F /  4.3 °C 30.1 in /  1017.8 hPa Calm   2 mph /  3.2 km/h 93 % 0 in /  0.0 mm
23:57 41.2 °F /  5.1 °C 39.4 °F /  4.1 °C 30.1 in /  1017.5 hPa Calm   2 mph /  3.2 km/h 93 % 0 in /  0.0 mm
Meteo18
Compliments of Weather Underground - 4 mb

Script developed by  Jim McMurry - jmcmurry@mwt.net Adapted for the template by  Wim van der Kuil - Leuven-Template.eu

You find our weather info also at:

European Weather Network

Weather Underground

Equipment we use:

Weather-station
Davis Vue

Weather-program
Meteohub

Weather-server
Raspberry PI 2 B+

Provider
1 and 1

Davis Vue

Meteohub

Raspberry PI 2 B+

1 and 1